createdAt,value
2018-05-10T00:00:12.799Z,85.10
2018-05-10T00:02:40.834Z,84.80
2018-05-10T00:05:09.650Z,83.20
2018-05-10T00:07:37.688Z,83.10
2018-05-10T00:10:05.760Z,83.40
2018-05-10T00:12:33.799Z,83.20
2018-05-10T00:15:01.859Z,83.00
2018-05-10T00:17:30.676Z,83.10
2018-05-10T00:19:58.707Z,83.10
2018-05-10T00:22:26.769Z,83.40
2018-05-10T00:24:54.803Z,83.10
2018-05-10T00:27:22.855Z,83.90
2018-05-10T00:29:50.881Z,83.50
2018-05-10T00:32:19.704Z,83.80
2018-05-10T00:34:47.691Z,83.70
2018-05-10T00:37:15.711Z,84.70
2018-05-10T00:39:43.698Z,85.10
2018-05-10T00:42:11.694Z,84.60
2018-05-10T00:44:40.466Z,84.00
2018-05-10T00:47:08.474Z,84.00
2018-05-10T00:49:37.245Z,84.10
2018-05-10T00:52:05.252Z,83.70
2018-05-10T00:54:45.056Z,83.40
2018-05-10T00:57:13.058Z,81.70
2018-05-10T00:59:41.082Z,81.70
2018-05-10T01:02:09.083Z,81.10
2018-05-10T01:04:37.855Z,82.40
2018-05-10T01:07:05.865Z,82.30
2018-05-10T01:09:34.611Z,82.30
2018-05-10T01:12:02.627Z,82.10
2018-05-10T01:14:30.626Z,80.70
2018-05-10T01:16:59.386Z,79.80
2018-05-10T01:19:27.391Z,79.80
2018-05-10T01:21:55.390Z,80.70
2018-05-10T01:24:24.149Z,81.10
2018-05-10T01:26:52.159Z,81.00
2018-05-10T01:29:20.158Z,81.30
2018-05-10T01:31:48.914Z,80.00
2018-05-10T01:34:16.929Z,79.90
2018-05-10T01:36:44.929Z,79.40
2018-05-10T01:39:13.683Z,79.20
2018-05-10T01:41:42.062Z,79.20
2018-05-10T01:44:10.067Z,79.80
2018-05-10T01:46:39.565Z,80.10
2018-05-10T01:49:07.563Z,80.00
2018-05-10T01:51:35.565Z,80.00
2018-05-10T01:54:03.582Z,79.20
2018-05-10T01:56:31.674Z,79.80
2018-05-10T01:58:59.678Z,81.00
2018-05-10T02:01:27.665Z,80.70
2018-05-10T02:03:55.674Z,79.40
2018-05-10T02:06:23.684Z,78.50
2018-05-10T02:08:51.685Z,79.80
2018-05-10T02:11:19.683Z,79.90
2018-05-10T02:13:47.691Z,79.20
2018-05-10T02:16:15.683Z,79.60
2018-05-10T02:18:43.690Z,80.30
2018-05-10T02:21:12.467Z,80.70
2018-05-10T02:23:40.447Z,80.00
2018-05-10T02:26:08.456Z,79.70
2018-05-10T02:28:37.227Z,81.00
2018-05-10T02:31:05.215Z,80.80
2018-05-10T02:33:33.222Z,81.40
2018-05-10T02:36:02.006Z,81.60
2018-05-10T02:38:30.771Z,81.60
2018-05-10T02:40:59.171Z,81.20
2018-05-10T02:43:27.179Z,82.00
2018-05-10T02:45:55.174Z,81.40
2018-05-10T02:48:23.948Z,81.40
2018-05-10T02:50:51.947Z,81.30
2018-05-10T02:53:19.939Z,81.90
2018-05-10T02:55:47.969Z,82.10
2018-05-10T02:58:15.954Z,82.90
2018-05-10T03:00:43.967Z,82.80
2018-05-10T03:03:11.972Z,82.80
2018-05-10T03:05:39.978Z,83.80
2018-05-10T03:08:07.976Z,83.70
2018-05-10T03:10:35.990Z,84.90
2018-05-10T03:13:03.994Z,85.00
2018-05-10T03:15:31.991Z,84.00
2018-05-10T03:18:00.771Z,83.60
2018-05-10T03:20:28.761Z,83.40
2018-05-10T03:22:56.754Z,83.00
2018-05-10T03:25:25.598Z,84.30
2018-05-10T03:27:53.581Z,84.20
2018-05-10T03:30:21.576Z,85.20
2018-05-10T03:32:49.578Z,85.30
2018-05-10T03:35:17.582Z,85.60
2018-05-10T03:37:45.595Z,86.50
2018-05-10T03:40:13.607Z,87.20
2018-05-10T03:42:41.611Z,87.30
2018-05-10T03:45:09.611Z,86.40
2018-05-10T03:47:37.623Z,85.80
2018-05-10T03:50:05.624Z,85.20
2018-05-10T03:52:33.619Z,85.20
2018-05-10T03:55:01.632Z,84.60
2018-05-10T03:57:29.645Z,84.30
2018-05-10T03:59:59.375Z,84.80
2018-05-10T04:02:39.439Z,84.70
2018-05-10T04:05:19.194Z,84.40
2018-05-10T04:07:59.822Z,85.50
2018-05-10T04:10:39.778Z,85.40
2018-05-10T04:13:07.798Z,84.50
2018-05-10T04:15:35.852Z,84.00
2018-05-10T04:18:04.565Z,83.00
2018-05-10T04:20:32.576Z,82.90
2018-05-10T04:23:01.355Z,83.30
2018-05-10T04:25:29.342Z,83.30
2018-05-10T04:27:57.413Z,83.60
2018-05-10T04:30:26.141Z,83.10
2018-05-10T04:32:54.121Z,83.10
2018-05-10T04:35:22.892Z,83.60
2018-05-10T04:37:50.894Z,83.50
2018-05-10T04:40:18.891Z,83.90
2018-05-10T04:42:47.654Z,83.40
2018-05-10T04:45:15.662Z,83.30
2018-05-10T04:47:43.659Z,83.50
2018-05-10T04:50:12.435Z,80.20
2018-05-10T04:52:40.443Z,80.20
2018-05-10T04:55:09.211Z,78.50
2018-05-10T04:57:37.326Z,78.50
2018-05-10T05:00:06.111Z,77.60
2018-05-10T05:02:34.098Z,77.50
2018-05-10T05:05:02.137Z,76.30
2018-05-10T05:07:30.142Z,76.00
2018-05-10T05:09:58.225Z,74.20
2018-05-10T05:12:26.140Z,74.00
2018-05-10T05:14:54.919Z,73.20
2018-05-10T05:17:22.902Z,73.30
2018-05-10T05:19:51.213Z,74.10
2018-05-10T05:22:19.982Z,70.40
2018-05-10T05:24:47.982Z,70.40
2018-05-10T05:27:15.983Z,70.20
2018-05-10T05:29:44.763Z,72.20
2018-05-10T05:32:12.758Z,72.30
2018-05-10T05:34:41.530Z,70.90
2018-05-10T05:37:09.539Z,70.80
2018-05-10T05:39:38.499Z,70.10
2018-05-10T05:42:06.519Z,70.00
2018-05-10T05:44:34.538Z,68.50
2018-05-10T05:47:02.540Z,68.40
2018-05-10T05:49:30.560Z,68.40
2018-05-10T05:51:58.554Z,67.70
2018-05-10T05:54:26.546Z,67.80
2018-05-10T05:56:55.329Z,67.70
2018-05-10T05:59:23.318Z,67.60
2018-05-10T06:01:52.079Z,68.10
2018-05-10T06:04:20.091Z,68.10
2018-05-10T06:06:48.094Z,67.90
2018-05-10T06:09:16.854Z,68.10
2018-05-10T06:11:44.862Z,68.00
2018-05-10T06:14:12.862Z,66.00
2018-05-10T06:16:41.618Z,64.10
2018-05-10T06:19:09.630Z,64.00
2018-05-10T06:21:38.410Z,63.70
2018-05-10T06:24:06.408Z,63.70
2018-05-10T06:26:36.060Z,61.10
2018-05-10T06:29:05.044Z,59.60
2018-05-10T06:31:33.106Z,59.50
2018-05-10T06:34:01.177Z,59.20
2018-05-10T06:36:29.920Z,59.40
2018-05-10T06:38:57.911Z,59.30
2018-05-10T06:41:26.719Z,59.40
2018-05-10T06:43:56.478Z,58.50
2018-05-10T06:46:24.475Z,58.40
2018-05-10T06:48:52.474Z,58.10
2018-05-10T06:51:21.259Z,57.90
2018-05-10T06:53:49.250Z,57.90
2018-05-10T06:56:17.255Z,56.10
2018-05-10T06:58:46.030Z,55.40
2018-05-10T07:01:14.027Z,55.50
2018-05-10T07:03:43.559Z,53.60
2018-05-10T07:06:12.346Z,52.90
2018-05-10T07:08:40.342Z,52.30
2018-05-10T07:11:08.349Z,52.00
2018-05-10T07:13:36.365Z,50.50
2018-05-10T07:16:04.365Z,49.80
2018-05-10T07:18:32.367Z,49.60
2018-05-10T07:21:00.379Z,48.60
2018-05-10T07:23:28.395Z,48.00
2018-05-10T07:25:56.411Z,46.90
2018-05-10T07:28:24.431Z,45.90
2018-05-10T07:30:52.415Z,45.40
2018-05-10T07:33:20.428Z,44.20
2018-05-10T07:35:48.447Z,44.70
2018-05-10T07:38:16.447Z,44.60
2018-05-10T07:40:45.214Z,45.60
2018-05-10T07:43:13.222Z,45.60
2018-05-10T07:45:42.999Z,46.00
2018-05-10T07:48:11.010Z,46.00
2018-05-10T07:50:39.023Z,45.50
2018-05-10T07:53:07.883Z,46.40
2018-05-10T07:55:36.599Z,45.50
2018-05-10T07:58:04.615Z,45.50
2018-05-10T08:00:32.630Z,44.30
2018-05-10T08:03:00.677Z,45.10
2018-05-10T08:05:29.483Z,44.70
2018-05-10T08:07:57.506Z,44.60
2018-05-10T08:10:25.523Z,44.20
2018-05-10T08:12:53.551Z,44.40
2018-05-10T08:15:21.559Z,44.70
2018-05-10T08:17:49.584Z,43.00
2018-05-10T08:20:18.376Z,42.40
2018-05-10T08:22:46.372Z,42.40
2018-05-10T08:25:15.190Z,40.00
2018-05-10T08:27:47.001Z,39.90
2018-05-10T08:30:15.842Z,39.80
2018-05-10T08:32:43.804Z,40.10
2018-05-10T08:35:11.806Z,40.00
2018-05-10T08:37:40.675Z,38.80
2018-05-10T08:40:08.683Z,38.70
2018-05-10T08:42:36.699Z,38.80
2018-05-10T08:45:04.788Z,37.20
2018-05-10T08:47:32.739Z,37.40
2018-05-10T08:50:01.519Z,37.00
2018-05-10T08:52:29.535Z,36.90
2018-05-10T08:54:58.311Z,35.10
2018-05-10T08:57:26.307Z,35.00
2018-05-10T08:59:55.154Z,33.30
2018-05-10T09:02:23.882Z,32.90
2018-05-10T09:04:51.873Z,32.80
2018-05-10T09:07:19.919Z,34.20
2018-05-10T09:09:48.670Z,32.60
2018-05-10T09:12:17.438Z,31.50
2018-05-10T09:14:45.459Z,31.90
2018-05-10T09:17:13.482Z,32.20
2018-05-10T09:19:41.491Z,31.80
2018-05-10T09:22:09.784Z,31.20
2018-05-10T09:24:37.783Z,31.80
2018-05-10T09:27:07.283Z,29.70
2018-05-10T09:29:35.307Z,29.60
2018-05-10T09:32:04.078Z,31.60
2018-05-10T09:34:33.023Z,31.50
2018-05-10T09:37:01.041Z,31.20
2018-05-10T09:39:29.113Z,29.80
2018-05-10T09:41:57.061Z,29.90
2018-05-10T09:44:25.043Z,29.40
2018-05-10T09:46:53.816Z,28.50
2018-05-10T09:49:23.318Z,29.40
2018-05-10T09:51:51.343Z,29.30
2018-05-10T09:54:19.368Z,28.80
2018-05-10T09:56:47.359Z,29.80
2018-05-10T09:59:15.397Z,29.90
2018-05-10T10:01:44.162Z,28.10
2018-05-10T10:04:12.154Z,28.10
2018-05-10T10:06:40.179Z,28.80
2018-05-10T10:09:08.950Z,28.00
2018-05-10T10:11:36.991Z,27.90
2018-05-10T10:14:05.723Z,26.80
2018-05-10T10:16:33.734Z,26.80
2018-05-10T10:19:02.495Z,26.60
2018-05-10T10:21:30.506Z,26.60
2018-05-10T10:23:59.270Z,26.50
2018-05-10T10:26:27.323Z,26.40
2018-05-10T10:28:55.335Z,26.90
2018-05-10T10:31:23.805Z,26.90
2018-05-10T10:33:51.785Z,26.90
2018-05-10T10:36:19.799Z,26.10
2018-05-10T10:38:47.806Z,24.70
2018-05-10T10:41:15.799Z,25.30
2018-05-10T10:43:44.603Z,25.50
2018-05-10T10:46:13.379Z,25.20
2018-05-10T10:48:41.387Z,25.10
2018-05-10T10:51:10.173Z,25.30
2018-05-10T10:53:39.682Z,23.70
2018-05-10T10:56:07.688Z,23.70
2018-05-10T10:58:36.463Z,24.10
2018-05-10T11:01:04.479Z,24.10
2018-05-10T11:03:33.256Z,25.60
2018-05-10T11:06:01.273Z,25.60
2018-05-10T11:08:29.315Z,24.90
2018-05-10T11:10:57.284Z,24.70
2018-05-10T11:13:25.296Z,22.90
2018-05-10T11:15:53.309Z,20.40
2018-05-10T11:18:21.314Z,20.50
2018-05-10T11:20:49.393Z,19.20
2018-05-10T11:23:17.319Z,21.50
2018-05-10T11:25:45.322Z,23.70
2018-05-10T11:28:14.107Z,30.50
2018-05-10T11:30:42.195Z,30.40
2018-05-10T11:33:10.986Z,33.20
2018-05-10T11:35:38.978Z,33.20
2018-05-10T11:38:06.987Z,33.30
2018-05-10T11:40:35.082Z,34.50
2018-05-10T11:43:03.079Z,35.30
2018-05-10T11:45:31.100Z,35.10
2018-05-10T11:47:59.091Z,35.50
2018-05-10T11:50:27.098Z,35.30
2018-05-10T11:52:55.943Z,35.70
2018-05-10T11:55:23.935Z,36.10
2018-05-10T11:57:52.161Z,36.00
2018-05-10T12:00:20.947Z,35.50
2018-05-10T12:02:48.942Z,35.50
2018-05-10T12:05:17.760Z,35.30
2018-05-10T12:07:45.727Z,35.20
2018-05-10T12:10:14.537Z,35.30
2018-05-10T12:12:43.354Z,35.00
2018-05-10T12:15:11.371Z,35.00
2018-05-10T12:17:39.368Z,36.20
2018-05-10T12:20:07.383Z,35.50
2018-05-10T12:22:36.147Z,36.10
2018-05-10T12:25:04.170Z,36.10
2018-05-10T12:27:32.273Z,35.90
2018-05-10T12:30:00.194Z,35.30
2018-05-10T12:32:28.201Z,37.60
2018-05-10T12:34:56.963Z,44.60
2018-05-10T12:37:24.976Z,44.60
2018-05-10T12:39:52.987Z,46.70
2018-05-10T12:42:21.755Z,52.70
2018-05-10T12:44:49.794Z,52.70
2018-05-10T12:47:17.814Z,52.90
2018-05-10T12:49:45.917Z,54.20
2018-05-10T12:52:13.923Z,54.90
2018-05-10T12:54:41.938Z,55.10
2018-05-10T12:57:09.941Z,55.40
2018-05-10T12:59:37.938Z,55.70
2018-05-10T13:02:06.056Z,55.50
2018-05-10T13:04:34.824Z,64.40
2018-05-10T13:07:02.839Z,64.30
2018-05-10T13:09:31.594Z,80.00
2018-05-10T13:11:59.611Z,79.90
2018-05-10T13:14:28.381Z,87.50
2018-05-10T13:16:56.387Z,87.50
2018-05-10T13:19:24.427Z,88.60
2018-05-10T13:21:53.166Z,90.30
2018-05-10T13:24:21.178Z,90.10
2018-05-10T13:26:49.419Z,90.60
2018-05-10T13:29:17.415Z,89.60
2018-05-10T13:31:45.419Z,90.20
2018-05-10T13:34:14.206Z,89.90
2018-05-10T13:36:43.523Z,89.70
2018-05-10T13:39:11.532Z,90.60
2018-05-10T13:41:39.580Z,91.70
2018-05-10T13:44:07.568Z,91.60
2018-05-10T13:46:37.080Z,91.20
2018-05-10T13:49:05.098Z,91.10
2018-05-10T13:51:33.300Z,90.80
2018-05-10T13:54:01.356Z,90.00
2018-05-10T13:56:30.127Z,85.60
2018-05-10T13:58:59.674Z,90.10
2018-05-10T14:01:28.443Z,91.20
2018-05-10T14:03:56.451Z,90.80
2018-05-10T14:06:25.211Z,85.60
2018-05-10T14:08:53.248Z,85.60
2018-05-10T14:11:22.802Z,90.20
2018-05-10T14:13:50.801Z,90.10
2018-05-10T14:16:18.810Z,90.60
2018-05-10T14:18:46.804Z,86.30
2018-05-10T14:21:16.407Z,89.20
2018-05-10T14:23:44.386Z,89.30
2018-05-10T14:26:12.403Z,90.50
2018-05-10T14:28:40.399Z,86.30
2018-05-10T14:31:08.401Z,86.90
2018-05-10T14:33:36.403Z,87.00
2018-05-10T14:36:04.420Z,91.10
2018-05-10T14:38:34.000Z,90.30
2018-05-10T14:41:02.013Z,90.10
2018-05-10T14:43:30.014Z,87.60
2018-05-10T14:45:58.779Z,91.40
2018-05-10T14:48:26.808Z,91.30
2018-05-10T14:50:54.799Z,90.70
2018-05-10T14:53:22.812Z,91.20
2018-05-10T14:55:50.815Z,90.30
2018-05-10T14:58:18.811Z,88.20
2018-05-10T15:00:46.832Z,89.80
2018-05-10T15:03:14.826Z,91.10
2018-05-10T15:05:42.835Z,89.60
2018-05-10T15:08:10.847Z,89.90
2018-05-10T15:10:40.620Z,91.40
2018-05-10T15:13:08.645Z,91.10
2018-05-10T15:15:38.447Z,90.60
2018-05-10T15:18:06.390Z,90.60
2018-05-10T15:20:34.395Z,92.40
2018-05-10T15:23:02.512Z,91.50
2018-05-10T15:25:30.828Z,91.70
2018-05-10T15:27:59.599Z,91.90
2018-05-10T15:30:27.607Z,91.90
2018-05-10T15:32:56.388Z,93.50
2018-05-10T15:35:24.383Z,93.50
2018-05-10T15:37:53.171Z,94.00
2018-05-10T15:40:22.687Z,93.90
2018-05-10T15:42:50.691Z,93.90
2018-05-10T15:45:19.468Z,92.40
2018-05-10T15:47:47.453Z,92.40
2018-05-10T15:50:15.487Z,93.00
2018-05-10T15:52:43.487Z,93.00
2018-05-10T15:55:11.496Z,92.90
2018-05-10T15:57:40.484Z,93.80
2018-05-10T16:00:08.475Z,94.00
2018-05-10T16:02:36.500Z,92.60
2018-05-10T16:05:05.293Z,93.60
2018-05-10T16:07:34.067Z,94.60
2018-05-10T16:10:02.084Z,94.50
2018-05-10T16:12:31.671Z,94.60
2018-05-10T16:14:59.655Z,94.50
2018-05-10T16:17:27.660Z,93.80
2018-05-10T16:19:55.662Z,93.80
2018-05-10T16:22:23.671Z,92.40
2018-05-10T16:24:51.672Z,90.80
2018-05-10T16:27:20.691Z,91.10
2018-05-10T16:29:48.706Z,91.30
2018-05-10T16:32:17.491Z,90.60
2018-05-10T16:34:47.005Z,91.30
2018-05-10T16:37:15.790Z,91.90
2018-05-10T16:39:43.803Z,91.90
2018-05-10T16:42:11.815Z,92.10
2018-05-10T16:44:39.821Z,92.60
2018-05-10T16:47:07.833Z,92.60
2018-05-10T16:49:35.847Z,93.30
2018-05-10T16:52:04.609Z,92.90
2018-05-10T16:54:32.603Z,92.90
2018-05-10T16:57:00.622Z,92.50
2018-05-10T16:59:29.579Z,93.50
2018-05-10T17:01:57.578Z,94.00
2018-05-10T17:04:25.600Z,95.20
2018-05-10T17:06:54.355Z,94.80
2018-05-10T17:09:22.355Z,94.40
2018-05-10T17:11:51.135Z,94.70
2018-05-10T17:14:19.130Z,94.70
2018-05-10T17:16:47.159Z,95.00
2018-05-10T17:19:15.162Z,95.00
2018-05-10T17:21:43.163Z,95.50
2018-05-10T17:24:11.169Z,95.40
2018-05-10T17:26:39.167Z,95.90
2018-05-10T17:29:07.950Z,96.50
2018-05-10T17:31:35.952Z,96.50
2018-05-10T17:34:04.763Z,96.40
2018-05-10T17:36:33.654Z,96.40
2018-05-10T17:39:02.443Z,95.20
2018-05-10T17:41:31.231Z,95.20
2018-05-10T17:43:59.227Z,95.20
2018-05-10T17:46:28.005Z,96.40
2018-05-10T17:48:56.014Z,96.40
2018-05-10T17:51:24.995Z,96.50
2018-05-10T17:53:53.015Z,96.40
2018-05-10T17:56:21.831Z,97.20
2018-05-10T17:58:50.180Z,97.20
2018-05-10T18:01:18.175Z,97.30
2018-05-10T18:03:46.195Z,97.20
2018-05-10T18:06:14.199Z,97.60
2018-05-10T18:08:42.210Z,97.70
2018-05-10T18:11:10.219Z,98.00
2018-05-10T18:13:39.014Z,98.10
2018-05-10T18:16:07.071Z,98.10
2018-05-10T18:18:36.599Z,97.70
2018-05-10T18:21:04.605Z,97.70
2018-05-10T18:23:33.440Z,99.20
2018-05-10T18:26:02.211Z,99.40
2018-05-10T18:28:30.994Z,99.30
2018-05-10T18:30:59.017Z,99.30
2018-05-10T18:33:27.072Z,99.70
2018-05-10T18:35:55.162Z,99.70
2018-05-10T18:38:23.943Z,99.90
2018-05-10T18:40:51.987Z,99.90
2018-05-10T18:43:19.967Z,99.90
2018-05-10T18:45:47.994Z,99.90
2018-05-10T18:48:15.993Z,99.90
2018-05-10T18:50:44.774Z,99.90
2018-05-10T18:53:12.797Z,99.90
2018-05-10T18:55:41.034Z,99.90
2018-05-10T18:58:09.036Z,99.80
2018-05-10T19:00:37.111Z,99.90
2018-05-10T19:03:05.156Z,99.90
2018-05-10T19:05:33.216Z,99.90
2018-05-10T19:08:01.229Z,99.90
2018-05-10T19:10:29.253Z,99.10
2018-05-10T19:12:57.258Z,99.90
2018-05-10T19:15:25.377Z,99.90
2018-05-10T19:17:53.378Z,99.90
2018-05-10T19:20:21.744Z,99.90
2018-05-10T19:22:50.766Z,99.80
2018-05-10T19:25:18.987Z,99.40
2018-05-10T19:27:47.874Z,99.90
2018-05-10T19:30:16.082Z,99.90
2018-05-10T19:32:44.099Z,99.90
2018-05-10T19:35:12.095Z,99.90
2018-05-10T19:37:40.118Z,99.90
2018-05-10T19:40:09.719Z,99.90
2018-05-10T19:42:37.731Z,99.90
2018-05-10T19:45:05.757Z,99.00
2018-05-10T19:47:33.803Z,98.50
2018-05-10T19:50:01.839Z,99.30
2018-05-10T19:52:30.010Z,97.40
2018-05-10T19:54:58.051Z,96.90
2018-05-10T19:57:26.066Z,96.50
2018-05-10T19:59:54.098Z,96.90
2018-05-10T20:02:22.100Z,97.40
2018-05-10T20:04:50.162Z,95.00
2018-05-10T20:07:18.168Z,93.50
2018-05-10T20:09:47.699Z,94.10
2018-05-10T20:12:16.497Z,93.10
2018-05-10T20:14:44.482Z,93.00
2018-05-10T20:17:13.283Z,90.00
2018-05-10T20:19:42.061Z,90.30
2018-05-10T20:22:10.060Z,90.30
2018-05-10T20:24:38.831Z,90.00
2018-05-10T20:27:08.511Z,91.60
2018-05-10T20:29:36.477Z,91.40
2018-05-10T20:32:05.357Z,93.50
2018-05-10T20:34:33.486Z,93.40
2018-05-10T20:37:02.667Z,89.60
2018-05-10T20:39:31.551Z,86.70
2018-05-10T20:42:00.007Z,86.60
2018-05-10T20:44:28.167Z,88.00
2018-05-10T20:46:56.239Z,91.10
2018-05-10T20:49:25.343Z,90.60
2018-05-10T20:51:53.421Z,90.60
2018-05-10T20:54:22.459Z,90.80
2018-05-10T20:56:50.467Z,90.40
2018-05-10T20:59:18.474Z,92.80
2018-05-10T21:01:46.463Z,93.00
2018-05-10T21:04:14.550Z,94.10
2018-05-10T21:06:43.268Z,91.90
2018-05-10T21:09:11.428Z,91.80
2018-05-10T21:11:39.443Z,92.90
2018-05-10T21:14:08.219Z,93.60
2018-05-10T21:16:36.233Z,93.50
2018-05-10T21:19:05.007Z,94.70
2018-05-10T21:21:33.021Z,94.80
2018-05-10T21:24:01.041Z,94.70
2018-05-10T21:26:29.038Z,95.10
2018-05-10T21:28:57.174Z,94.40
2018-05-10T21:31:25.200Z,95.40
2018-05-10T21:33:53.258Z,96.20
2018-05-10T21:36:22.005Z,96.30
2018-05-10T21:38:50.023Z,96.20
2018-05-10T21:41:18.039Z,95.20
2018-05-10T21:43:46.388Z,95.30
2018-05-10T21:46:15.156Z,96.10
2018-05-10T21:48:43.174Z,96.00
2018-05-10T21:51:11.939Z,96.50
2018-05-10T21:53:39.955Z,96.50
2018-05-10T21:56:08.736Z,96.30
2018-05-10T21:58:37.581Z,96.20
2018-05-10T22:01:05.589Z,95.80
2018-05-10T22:03:33.603Z,96.60
2018-05-10T22:06:01.621Z,96.20
2018-05-10T22:08:29.642Z,96.10
2018-05-10T22:10:57.637Z,95.20
2018-05-10T22:13:25.648Z,96.10
2018-05-10T22:15:54.418Z,96.60
2018-05-10T22:18:22.440Z,96.60
2018-05-10T22:20:51.217Z,97.70
2018-05-10T22:23:19.207Z,97.70
2018-05-10T22:25:47.998Z,98.10
2018-05-10T22:28:16.005Z,98.10
2018-05-10T22:30:44.771Z,96.20
2018-05-10T22:33:12.785Z,96.20
2018-05-10T22:35:41.547Z,96.10
2018-05-10T22:38:09.566Z,96.00
2018-05-10T22:40:38.334Z,95.20
2018-05-10T22:43:06.360Z,95.20
2018-05-10T22:45:35.140Z,95.40
2018-05-10T22:48:03.202Z,95.40
2018-05-10T22:50:31.923Z,96.30
2018-05-10T22:52:59.918Z,96.30
2018-05-10T22:55:27.934Z,96.60
2018-05-10T22:57:55.951Z,96.30
2018-05-10T23:00:23.951Z,96.30
2018-05-10T23:02:52.050Z,96.80
2018-05-10T23:05:20.825Z,96.40
2018-05-10T23:07:48.843Z,96.40
2018-05-10T23:10:17.626Z,96.70
2018-05-10T23:12:46.403Z,96.10
2018-05-10T23:15:14.412Z,95.80
2018-05-10T23:17:42.409Z,96.80
2018-05-10T23:20:11.186Z,97.50
2018-05-10T23:22:39.199Z,97.50
2018-05-10T23:25:07.199Z,95.20
2018-05-10T23:27:35.242Z,95.80
2018-05-10T23:30:03.268Z,96.10
2018-05-10T23:32:31.266Z,96.50
2018-05-10T23:34:59.278Z,96.10
2018-05-10T23:37:27.275Z,95.80
2018-05-10T23:39:56.054Z,95.70
2018-05-10T23:42:24.058Z,95.60
2018-05-10T23:44:52.847Z,95.70
2018-05-10T23:47:20.963Z,95.70
2018-05-10T23:49:48.963Z,96.70
2018-05-10T23:52:16.975Z,96.40
2018-05-10T23:54:44.975Z,95.90
2018-05-10T23:57:13.003Z,96.70
2018-05-10T23:59:41.018Z,97.80
